Valdez, NM (87580)

1:26 PM MDT on October 21, 2014 (GMT -0600)
Upper Red River Valley | Change Station
CLOSE
Current Station
Personal Weather Station
Location: Red River, NM
Elevation: 9209 ft
Nearby Weather Stations

Elev 9209 ft 36.64 °N, 105.38 °W | Updated 8 minutes ago

Overcast
Overcast
51.8 °F
Feels Like 51.8 °F
N
3.0
Wind Variable Wind from NE
Gusts 3.0 mph

Today
High -- | Low -- °F
--% Chance of Precip.
Yesterday
High -- | Low -- °F
Precip. -- in
7:14 AM 6:17 PM
Waning Crescent, 4% visible
Pressure 30.25 in
Visibility 10.0 miles
Clouds Scattered Clouds 3500 ft
Mostly Cloudy 7000 ft
Overcast 8000 ft
Dew Point 38 °F
Humidity 60%
Rainfall 0.00 in
Snow Depth Not available.
UV 2 out of 12
Pollen 2.90 out of 12
Air Quality Not available.
Flu Activity Sporadic
METAR KAXX 211915Z AUTO 23008KT 10SM SCT035 BKN070 OVC080 10/06 A3025 RMK AO2 T00970062

More Conditions Fewer Conditions

Pressure 30.25 in
Visibility 10.0 miles
Clouds Scattered Clouds 3500 ft
Mostly Cloudy 7000 ft
Overcast 8000 ft
Dew Point 38 °F
Humidity 60%
Rainfall 0.00 in
Snow Depth Not available.
UV 2 out of 12
Pollen 2.90 out of 12
Air Quality Not available.
Flu Activity Sporadic
METAR KAXX 211915Z AUTO 23008KT 10SM SCT035 BKN070 OVC080 10/06 A3025 RMK AO2 T00970062

More Conditions Fewer Conditions

Nowcast | as of 12:06 PM MDT on October 21, 2014

A few showers and a thunderstorm or two will continue through this afternoon over north central New Mexico. Expect mostly light rain with amounts around one tenth of an inch through 2 PM.

×

10-Day Weather Forecast

Almanac

Astronomy

Oct. 21, 2014 Rise Set
Actual Time 7:14 AM MDT 6:17 PM MDT
Civil Twilight 6:48 AM MDT 6:44 PM MDT
Nautical Twilight 6:18 AM MDT 7:14 PM MDT
Astronomical Twilight 5:48 AM MDT 7:43 PM MDT
Moon 5:05 AM MDT 5:10 PM MDT
Length of Visible Light 11h 55m
Length of Day
11h 02m
Tomorrow will be 2m 10s shorter.
Waning Crescent, 4% of the Moon is Illuminated
Today
Waning Crescent
Oct 23
New
Oct 30
First Quarter
Nov 6
Full
Nov 14
Last Quarter

Today's Extremes

State Highs State Lows

Community

WunderPhotos

Upload Photos

1,763,751 photos uploaded!

Nearby

Snow Depth

Station Depth Elevation
Gallegos Peak 0 in 9800 ft
Hopewell 0 in 10000 ft
Elk Cabin 0 in 8210 ft
Wesner Springs 3 in 11120 ft
Santa Fe 0 in 11445 ft

Earthquake Activity

City Distance Mag. Time & Date
Trinidad, Colorado 46 miles 2.7 10:33 PM MDT
2014-10-20
Trinidad, Colorado 57 miles 2.5 10:01 PM MDT
2014-10-19
Minimum magnitude displayed is 2.5.

Coastal Water Temperatures

Place Temperature
No Stations Reporting

Nearby Weather Stations